This is the latest recevied weather packets stored in our database for station/object AD4WX-13. If no packets are shown the sender has not sent any weather packets the latest 10 day(s).
| Time | Temp. | Humidity | Pressure | Rain* | Wind** | Luminosity | Snow |
|---|---|---|---|---|---|---|---|
| 1777097004 | 15.56° C | 90% | 1007.3 hPa | 0 mm | - | 0 W/m² | - |
| 1777094540 | 15.56° C | 90% | 1007.6 hPa | 0 mm | - | 0 W/m² | - |
| 1777092727 | 15.56° C | 90% | 1007.6 hPa | 0 mm | - | 0 W/m² | - |
| 1777089607 | 15.56° C | 90% | 1007.6 hPa | 0 mm | - | 0 W/m² | - |
| 1777088920 | 16.11° C | 90% | 1007.6 hPa | 0 mm | - | 0 W/m² | - |
| 1777087618 | 16.11° C | 90% | 1007.7 hPa | 0 mm | - | 0 W/m² | - |
| 1777079658 | 18.33° C | 90% | 1006.7 hPa | 0 mm | - | 0 W/m² | - |
| 1777076581 | 18.89° C | 90% | 1006.8 hPa | 0 mm | - | 5 W/m² | - |
| 1777075924 | 19.44° C | 90% | 1006.9 hPa | 0 mm | - | 12 W/m² | - |
| 1777070403 | 20° C | 90% | 1006.8 hPa | 0 mm | - | 97 W/m² | - |
| 1777069099 | 19.44° C | 90% | 1006.1 hPa | 0 mm | - | 130 W/m² | - |
| 1777065417 | 20° C | 90% | 1007.4 hPa | 0 mm | - | 121 W/m² | - |
| 1777064148 | 20° C | 89% | 1007.5 hPa | 0 mm | - | 171 W/m² | - |
| 1777062857 | 20° C | 89% | 1007.5 hPa | 1.02 mm | - | 186 W/m² | - |
| 1777058627 | 23.33° C | 75% | 1007.9 hPa | 0 mm | - | 376 W/m² | - |
| 1777057936 | 22.78° C | 77% | 1008 hPa | 0 mm | - | 251 W/m² | - |
| 1777047019 | 23.89° C | 68% | 1009.8 hPa | 0 mm | - | 527 W/m² | - |
| 1777046367 | 23.89° C | 68% | 1009.8 hPa | 0 mm | - | 596 W/m² | - |
| 1777045662 | 23.89° C | 68% | 1009.9 hPa | 0 mm | - | 935 W/m² | - |
| 1777034058 | 15.56° C | 91% | 1009.5 hPa | 0 mm | - | 146 W/m² | - |
| 1777029079 | 12.78° C | 91% | 1008.8 hPa | 0 mm | - | 0 W/m² | - |
* Rain latest hour (hover to see other rain measurements)
** Current wind speed in m/s (hover to see current wind gust speed)